createdAt,value
2022-09-22T00:01:33.172Z,1.85
2022-09-22T00:04:05.994Z,1.90
2022-09-22T00:06:40.220Z,1.40
2022-09-22T00:09:11.657Z,2.28
2022-09-22T00:14:20.650Z,1.93
2022-09-22T00:16:49.867Z,1.70
2022-09-22T00:19:37.894Z,1.95
2022-09-22T00:22:06.278Z,1.80
2022-09-22T00:24:34.843Z,1.63
2022-09-22T00:27:02.841Z,1.83
2022-09-22T00:29:31.059Z,2.00
2022-09-22T00:32:01.270Z,1.98
2022-09-22T00:34:32.912Z,1.58
2022-09-22T00:37:00.791Z,1.27
2022-09-22T00:39:30.920Z,2.08
2022-09-22T00:41:58.795Z,1.30
2022-09-22T00:44:29.317Z,2.45
2022-09-22T00:47:03.186Z,1.20
2022-09-22T00:49:42.867Z,1.60
2022-09-22T00:52:13.235Z,1.58
2022-09-22T00:54:41.212Z,1.57
2022-09-22T00:57:14.597Z,1.88
2022-09-22T00:59:47.882Z,2.00
2022-09-22T01:02:15.971Z,2.15
2022-09-22T01:04:43.895Z,1.50
2022-09-22T01:07:12.614Z,1.70
2022-09-22T01:09:40.633Z,1.88
2022-09-22T01:12:08.566Z,1.55
2022-09-22T01:14:36.471Z,1.67
2022-09-22T01:17:13.303Z,1.60
2022-09-22T01:20:01.603Z,1.40
2022-09-22T01:23:25.167Z,1.65
2022-09-22T01:26:20.225Z,1.40
2022-09-22T01:28:56.591Z,1.50
2022-09-22T01:31:32.858Z,1.23
2022-09-22T01:34:36.185Z,1.70
2022-09-22T01:37:16.162Z,1.50
2022-09-22T01:40:10.752Z,1.40
2022-09-22T01:42:55.710Z,1.67
2022-09-22T01:45:29.755Z,1.38
2022-09-22T01:48:10.452Z,1.35
2022-09-22T01:51:07.600Z,1.58
2022-09-22T01:53:42.570Z,1.27
2022-09-22T01:56:14.156Z,1.30
2022-09-22T01:58:53.426Z,1.75
2022-09-22T02:01:26.579Z,1.58
2022-09-22T02:04:02.268Z,1.67
2022-09-22T02:06:37.803Z,1.75
2022-09-22T02:09:11.021Z,1.75
2022-09-22T02:11:39.020Z,1.75
2022-09-22T02:14:07.355Z,1.40
2022-09-22T02:16:35.574Z,1.50
2022-09-22T02:19:20.694Z,1.67
2022-09-22T02:21:49.307Z,1.60
2022-09-22T02:24:37.477Z,1.67
2022-09-22T02:27:14.689Z,1.70
2022-09-22T02:29:53.103Z,1.60
2022-09-22T02:32:21.682Z,1.63
2022-09-22T02:34:49.922Z,1.20
2022-09-22T02:37:39.977Z,1.83
2022-09-22T02:40:22.396Z,1.63
2022-09-22T02:43:25.932Z,1.50
2022-09-22T02:46:16.907Z,1.63
2022-09-22T02:48:50.643Z,1.50
2022-09-22T02:51:19.002Z,1.70
2022-09-22T02:53:47.294Z,1.30
2022-09-22T02:56:15.194Z,2.10
2022-09-22T02:58:42.999Z,1.50
2022-09-22T03:01:10.886Z,1.67
2022-09-22T03:03:38.823Z,1.45
2022-09-22T03:06:06.774Z,1.67
2022-09-22T03:08:34.739Z,1.42
2022-09-22T03:11:02.834Z,1.50
2022-09-22T03:13:30.723Z,1.35
2022-09-22T03:15:58.654Z,1.50
2022-09-22T03:18:26.647Z,1.75
2022-09-22T03:20:54.618Z,1.80
2022-09-22T03:23:22.448Z,1.70
2022-09-22T03:25:50.257Z,1.92
2022-09-22T03:28:18.423Z,1.98
2022-09-22T03:30:46.365Z,1.60
2022-09-22T03:33:14.418Z,2.00
2022-09-22T03:35:42.742Z,1.58
2022-09-22T03:38:11.055Z,1.83
2022-09-22T03:40:38.942Z,1.63
2022-09-22T03:43:06.855Z,1.95
2022-09-22T03:45:35.442Z,1.77
2022-09-22T03:48:03.327Z,1.92
2022-09-22T03:50:31.171Z,2.20
2022-09-22T03:52:59.040Z,2.47
2022-09-22T03:55:26.861Z,1.75
2022-09-22T03:57:54.682Z,2.13
2022-09-22T04:00:22.496Z,1.80
2022-09-22T04:02:50.380Z,2.08
2022-09-22T04:05:18.786Z,1.80
2022-09-22T04:07:46.958Z,2.40
2022-09-22T04:10:14.876Z,2.17
2022-09-22T04:12:43.163Z,1.80
2022-09-22T04:15:11.075Z,2.13
2022-09-22T04:17:38.976Z,2.40
2022-09-22T04:20:08.301Z,2.15
2022-09-22T04:22:36.446Z,2.30
2022-09-22T04:25:05.239Z,1.77
2022-09-22T04:27:33.110Z,1.98
2022-09-22T04:41:05.513Z,2.17
2022-09-22T04:46:15.463Z,2.40
2022-09-22T04:48:43.315Z,1.98
2022-09-22T04:51:11.316Z,2.60
2022-09-22T04:53:39.186Z,1.95
2022-09-22T04:56:07.170Z,2.42
2022-09-22T04:58:35.019Z,2.10
2022-09-22T05:01:07.285Z,2.75
2022-09-22T05:03:38.141Z,2.30
2022-09-22T05:06:06.808Z,2.80
2022-09-22T05:08:35.064Z,2.90
2022-09-22T05:11:03.581Z,2.83
2022-09-22T05:13:31.497Z,3.00
2022-09-22T05:15:59.443Z,3.17
2022-09-22T05:18:27.286Z,2.88
2022-09-22T05:20:55.143Z,3.45
2022-09-22T05:23:23.031Z,2.45
2022-09-22T05:25:51.023Z,2.63
2022-09-22T05:28:20.327Z,2.17
2022-09-22T05:30:51.188Z,2.90
2022-09-22T05:33:19.626Z,2.95
2022-09-22T05:35:47.566Z,2.88
2022-09-22T05:38:15.406Z,3.20
2022-09-22T05:40:47.195Z,2.15
2022-09-22T05:43:15.682Z,2.45
2022-09-22T05:45:46.855Z,3.45
2022-09-22T05:50:45.087Z,2.50
2022-09-22T05:53:13.500Z,2.97
2022-09-22T05:55:41.779Z,2.15
2022-09-22T05:58:13.288Z,2.28
2022-09-22T06:00:41.818Z,2.63
2022-09-22T06:03:10.563Z,2.58
2022-09-22T06:05:39.852Z,2.58
2022-09-22T06:08:08.188Z,3.00
2022-09-22T06:10:38.052Z,2.30
2022-09-22T06:13:08.761Z,2.15
2022-09-22T06:15:37.576Z,2.78
2022-09-22T06:18:11.841Z,2.28
2022-09-22T06:20:42.871Z,2.92
2022-09-22T06:23:13.501Z,2.40
2022-09-22T06:25:42.909Z,2.65
2022-09-22T06:28:14.481Z,2.70
2022-09-22T06:30:42.826Z,2.53
2022-09-22T06:33:11.694Z,2.35
2022-09-22T06:35:43.045Z,3.28
2022-09-22T06:38:15.069Z,2.20
2022-09-22T06:40:43.771Z,2.53
2022-09-22T06:43:23.010Z,2.72
2022-09-22T06:45:51.953Z,2.53
2022-09-22T06:48:24.055Z,2.40
2022-09-22T06:50:53.829Z,2.45
2022-09-22T06:53:25.714Z,2.78
2022-09-22T06:55:54.907Z,2.70
2022-09-22T06:58:22.817Z,3.08
2022-09-22T07:00:51.028Z,2.95
2022-09-22T07:03:24.536Z,2.60
2022-09-22T07:05:57.377Z,2.67
2022-09-22T07:08:26.001Z,2.33
2022-09-22T07:11:09.112Z,2.95
2022-09-22T07:13:42.569Z,2.90
2022-09-22T07:16:17.541Z,2.40
2022-09-22T07:18:50.045Z,2.72
2022-09-22T07:21:24.623Z,2.63
2022-09-22T07:23:55.399Z,3.33
2022-09-22T07:26:33.594Z,2.70
2022-09-22T07:29:06.241Z,3.00
2022-09-22T07:31:34.950Z,3.30
2022-09-22T07:34:03.191Z,2.65
2022-09-22T07:36:34.196Z,2.58
2022-09-22T07:39:08.075Z,2.65
2022-09-22T07:41:43.146Z,2.53
2022-09-22T07:44:32.448Z,2.70
2022-09-22T07:47:01.705Z,2.38
2022-09-22T07:49:30.401Z,2.00
2022-09-22T07:51:58.295Z,2.70
2022-09-22T07:54:27.129Z,2.70
2022-09-22T07:57:02.170Z,2.30
2022-09-22T07:59:29.954Z,2.60
2022-09-22T08:01:58.085Z,2.60
2022-09-22T08:04:26.463Z,2.50
2022-09-22T08:06:55.960Z,2.42
2022-09-22T08:09:25.337Z,3.20
2022-09-22T08:11:53.653Z,2.75
2022-09-22T08:14:23.400Z,2.22
2022-09-22T08:16:53.133Z,2.25
2022-09-22T08:19:23.390Z,3.08
2022-09-22T08:21:53.906Z,2.27
2022-09-22T08:24:22.658Z,2.45
2022-09-22T08:26:53.247Z,2.35
2022-09-22T08:29:21.610Z,2.03
2022-09-22T08:31:51.200Z,2.55
2022-09-22T08:34:20.029Z,2.70
2022-09-22T08:36:48.538Z,2.20
2022-09-22T08:39:18.185Z,2.17
2022-09-22T08:41:51.782Z,1.77
2022-09-22T08:44:24.851Z,2.45
2022-09-22T08:46:54.933Z,2.15
2022-09-22T08:50:01.757Z,2.45
2022-09-22T08:52:49.979Z,2.40
2022-09-22T08:55:19.893Z,2.58
2022-09-22T08:57:56.312Z,1.90
2022-09-22T09:00:31.398Z,2.10
2022-09-22T09:03:14.875Z,2.03
2022-09-22T09:05:48.447Z,2.13
2022-09-22T09:08:28.492Z,2.42
2022-09-22T09:11:11.713Z,1.80
2022-09-22T09:13:42.733Z,1.98
2022-09-22T09:16:34.230Z,2.20
2022-09-22T09:19:23.838Z,2.17
2022-09-22T09:21:56.327Z,1.83
2022-09-22T09:27:29.190Z,1.50
2022-09-22T09:30:19.979Z,1.70
2022-09-22T09:32:59.082Z,1.65
2022-09-22T09:35:45.414Z,1.83
2022-09-22T09:38:17.242Z,1.83
2022-09-22T09:40:49.510Z,1.25
2022-09-22T09:43:18.401Z,1.40
2022-09-22T09:45:51.648Z,1.60
2022-09-22T09:49:02.708Z,1.30
2022-09-22T09:51:32.242Z,1.42
2022-09-22T09:54:03.875Z,1.58
2022-09-22T09:56:33.913Z,1.08
2022-09-22T09:59:25.370Z,1.27
2022-09-22T10:01:54.740Z,1.17
2022-09-22T10:04:37.417Z,1.20
2022-09-22T10:07:21.535Z,1.02
2022-09-22T10:09:51.570Z,1.00
2022-09-22T10:12:29.375Z,1.00
2022-09-22T10:15:01.573Z,0.95
2022-09-22T10:17:40.844Z,2.25
2022-09-22T10:20:28.305Z,1.67
2022-09-22T10:22:57.397Z,1.15
2022-09-22T10:25:31.424Z,1.10
2022-09-22T10:28:09.251Z,1.20
2022-09-22T10:30:37.801Z,1.15
2022-09-22T10:33:18.782Z,1.63
2022-09-22T10:36:11.169Z,1.10
2022-09-22T10:38:42.510Z,1.35
2022-09-22T10:41:17.716Z,1.37
2022-09-22T10:44:20.936Z,1.05
2022-09-22T10:47:06.859Z,1.50
2022-09-22T10:49:46.765Z,1.10
2022-09-22T10:52:41.352Z,1.25
2022-09-22T10:55:34.659Z,1.20
2022-09-22T10:58:42.884Z,1.02
2022-09-22T11:01:37.944Z,1.38
2022-09-22T11:04:23.916Z,1.45
2022-09-22T11:07:19.696Z,1.23
2022-09-22T11:10:33.481Z,0.90
2022-09-22T11:13:36.169Z,1.45
2022-09-22T11:16:29.915Z,1.35
2022-09-22T11:19:20.004Z,1.20
2022-09-22T11:22:04.037Z,1.20
2022-09-22T11:25:05.626Z,0.77
2022-09-22T11:27:51.318Z,0.90
2022-09-22T11:30:23.240Z,0.80
2022-09-22T11:33:20.772Z,0.98
2022-09-22T11:36:32.730Z,1.40
2022-09-22T11:39:02.934Z,0.90
2022-09-22T11:41:31.500Z,0.90
2022-09-22T11:44:37.857Z,0.77
2022-09-22T11:47:19.378Z,0.88
2022-09-22T11:50:04.857Z,0.82
2022-09-22T11:52:58.793Z,0.90
2022-09-22T11:55:56.905Z,0.90
2022-09-22T11:58:28.522Z,0.70
2022-09-22T12:01:12.331Z,1.02
2022-09-22T12:04:14.038Z,0.70
2022-09-22T12:09:26.328Z,0.90
2022-09-22T12:11:56.149Z,0.93
2022-09-22T12:14:24.428Z,1.02
2022-09-22T12:17:18.773Z,1.08
2022-09-22T12:20:16.398Z,1.10
2022-09-22T12:23:08.676Z,0.95
2022-09-22T12:25:48.637Z,1.23
2022-09-22T12:28:29.901Z,1.27
2022-09-22T12:31:12.708Z,0.90
2022-09-22T12:33:47.704Z,1.10
2022-09-22T12:36:17.010Z,0.77
2022-09-22T12:38:45.697Z,0.88
2022-09-22T12:41:19.578Z,1.05
2022-09-22T12:43:48.682Z,0.88
2022-09-22T12:46:25.340Z,0.95
2022-09-22T12:48:53.497Z,0.95
2022-09-22T12:51:33.057Z,0.70
2022-09-22T12:54:22.503Z,0.88
2022-09-22T12:59:39.979Z,0.93
2022-09-22T13:02:17.320Z,0.77
2022-09-22T13:04:54.975Z,0.80
2022-09-22T13:07:38.713Z,0.88
2022-09-22T13:10:34.527Z,0.65
2022-09-22T13:13:12.298Z,0.90
2022-09-22T13:15:46.590Z,0.88
2022-09-22T13:18:39.178Z,0.88
2022-09-22T13:21:12.972Z,0.93
2022-09-22T13:23:54.755Z,1.00
2022-09-22T13:26:25.198Z,0.73
2022-09-22T13:31:56.592Z,1.00
2022-09-22T13:34:35.497Z,1.10
2022-09-22T13:37:10.737Z,0.95
2022-09-22T13:39:47.606Z,1.20
2022-09-22T13:42:25.392Z,0.93
2022-09-22T13:45:03.550Z,0.93
2022-09-22T13:47:31.831Z,0.80
2022-09-22T13:50:06.364Z,0.60
2022-09-22T13:52:38.563Z,0.90
2022-09-22T13:55:31.769Z,0.70
2022-09-22T13:58:00.535Z,0.88
2022-09-22T14:00:38.216Z,0.90
2022-09-22T14:03:20.432Z,0.90
2022-09-22T14:05:53.777Z,0.70
2022-09-22T14:08:30.760Z,0.90
2022-09-22T14:11:00.113Z,0.70
2022-09-22T14:13:41.427Z,0.80
2022-09-22T14:16:58.172Z,0.82
2022-09-22T14:19:39.562Z,0.63
2022-09-22T14:22:19.535Z,0.85
2022-09-22T14:24:52.105Z,1.20
2022-09-22T14:27:27.036Z,0.90
2022-09-22T14:29:55.767Z,0.90
2022-09-22T14:32:38.136Z,0.80
2022-09-22T14:35:09.655Z,0.90
2022-09-22T14:37:41.888Z,0.60
2022-09-22T14:40:23.312Z,0.95
2022-09-22T14:42:58.389Z,0.80
2022-09-22T14:45:27.464Z,1.00
2022-09-22T14:48:18.181Z,0.65
2022-09-22T14:51:15.172Z,0.70
2022-09-22T14:53:58.603Z,0.93
2022-09-22T14:56:29.387Z,0.93
2022-09-22T14:59:22.861Z,0.93
2022-09-22T15:02:09.713Z,0.80
2022-09-22T15:04:47.097Z,0.80
2022-09-22T15:07:37.376Z,0.70
2022-09-22T15:10:25.493Z,0.68
2022-09-22T15:12:56.858Z,0.60
2022-09-22T15:15:31.705Z,0.80
2022-09-22T15:18:18.896Z,0.63
2022-09-22T15:20:59.659Z,1.00
2022-09-22T15:26:04.897Z,0.88
2022-09-22T15:28:37.866Z,0.60
2022-09-22T15:31:06.550Z,0.70
2022-09-22T15:33:34.524Z,0.77
2022-09-22T15:36:13.064Z,0.90
2022-09-22T15:38:41.618Z,0.65
2022-09-22T15:41:11.751Z,0.80
2022-09-22T15:43:40.642Z,0.70
2022-09-22T15:46:35.536Z,0.82
2022-09-22T15:49:23.216Z,0.90
2022-09-22T15:51:51.263Z,0.50
2022-09-22T15:54:22.141Z,0.90
2022-09-22T15:56:54.674Z,0.80
2022-09-22T15:59:28.708Z,0.88
2022-09-22T16:01:57.137Z,0.77
2022-09-22T16:04:33.633Z,1.00
2022-09-22T16:07:08.244Z,0.75
2022-09-22T16:09:36.308Z,0.98
2022-09-22T16:12:08.530Z,0.90
2022-09-22T16:14:36.798Z,0.90
2022-09-22T16:17:05.892Z,0.93
2022-09-22T16:19:34.230Z,1.00
2022-09-22T16:22:02.691Z,0.90
2022-09-22T16:24:30.946Z,0.70
2022-09-22T16:26:59.625Z,0.80
2022-09-22T16:29:27.466Z,0.85
2022-09-22T16:31:55.963Z,0.80
2022-09-22T16:34:24.722Z,1.08
2022-09-22T16:36:52.588Z,1.50
2022-09-22T16:39:20.515Z,1.30
2022-09-22T16:41:48.447Z,0.95
2022-09-22T16:44:16.404Z,0.90
2022-09-22T16:46:44.251Z,0.65
2022-09-22T16:49:16.069Z,0.90
2022-09-22T16:51:50.671Z,0.75
2022-09-22T16:54:19.458Z,0.88
2022-09-22T16:56:49.413Z,0.98
2022-09-22T16:59:22.530Z,0.98
2022-09-22T17:01:50.681Z,1.27
2022-09-22T17:04:19.381Z,1.20
2022-09-22T17:06:47.904Z,1.08
2022-09-22T17:09:16.672Z,1.20
2022-09-22T17:11:47.814Z,0.95
2022-09-22T17:14:24.367Z,1.23
2022-09-22T17:16:55.274Z,0.90
2022-09-22T17:21:56.615Z,0.88
2022-09-22T17:24:26.261Z,0.82
2022-09-22T17:26:57.411Z,1.25
2022-09-22T17:29:27.389Z,1.00
2022-09-22T17:31:59.087Z,1.30
2022-09-22T17:34:28.936Z,1.27
2022-09-22T17:36:57.568Z,1.33
2022-09-22T17:39:27.460Z,1.00
2022-09-22T17:41:55.698Z,1.08
2022-09-22T17:44:24.084Z,1.20
2022-09-22T17:47:11.784Z,1.17
2022-09-22T17:49:58.835Z,1.30
2022-09-22T17:52:29.947Z,1.10
2022-09-22T17:55:06.804Z,1.35
2022-09-22T17:57:41.216Z,1.83
2022-09-22T18:00:21.266Z,1.85
2022-09-22T18:02:52.497Z,2.22
2022-09-22T18:05:26.439Z,2.40
2022-09-22T18:07:57.774Z,1.80
2022-09-22T18:10:30.296Z,1.58
2022-09-22T18:12:59.242Z,1.10
2022-09-22T18:15:27.977Z,1.42
2022-09-22T18:17:57.896Z,1.63
2022-09-22T18:20:27.313Z,1.48
2022-09-22T18:22:57.652Z,1.40
2022-09-22T18:25:28.089Z,1.45
2022-09-22T18:27:56.326Z,1.63
2022-09-22T18:30:24.141Z,1.38
2022-09-22T18:32:52.193Z,1.50
2022-09-22T18:35:20.485Z,1.27
2022-09-22T18:37:48.420Z,1.17
2022-09-22T18:40:16.998Z,1.35
2022-09-22T18:42:45.263Z,1.17
2022-09-22T18:45:14.039Z,1.35
2022-09-22T18:47:43.675Z,1.70
2022-09-22T18:50:12.357Z,1.45
2022-09-22T18:52:43.020Z,1.48
2022-09-22T18:55:18.591Z,1.52
2022-09-22T18:57:47.976Z,1.48
2022-09-22T19:00:16.377Z,1.52
2022-09-22T19:02:44.982Z,1.50
2022-09-22T19:05:12.906Z,1.65
2022-09-22T19:07:44.208Z,1.50
2022-09-22T19:10:15.687Z,1.73
2022-09-22T19:12:43.652Z,1.70
2022-09-22T19:15:18.411Z,1.20
2022-09-22T19:17:49.149Z,1.63
2022-09-22T19:20:22.540Z,1.30
2022-09-22T19:22:52.164Z,1.63
2022-09-22T19:25:21.772Z,1.30
2022-09-22T19:27:53.519Z,1.33
2022-09-22T19:30:24.745Z,1.73
2022-09-22T19:32:54.353Z,1.25
2022-09-22T19:35:22.212Z,1.77
2022-09-22T19:37:51.664Z,1.60
2022-09-22T19:40:20.909Z,1.60
2022-09-22T19:42:49.709Z,1.60
2022-09-22T19:45:19.021Z,1.55
2022-09-22T19:47:47.316Z,1.55
2022-09-22T19:50:16.275Z,1.42
2022-09-22T19:52:44.108Z,1.70
2022-09-22T19:55:12.198Z,1.63
2022-09-22T19:57:42.867Z,1.27
2022-09-22T20:00:25.686Z,1.50
2022-09-22T20:02:58.430Z,1.23
2022-09-22T20:05:36.667Z,1.45
2022-09-22T20:08:17.281Z,1.77
2022-09-22T20:10:47.367Z,1.70
2022-09-22T20:13:34.493Z,1.52
2022-09-22T20:16:03.050Z,1.40
2022-09-22T20:18:30.984Z,1.90
2022-09-22T20:21:05.654Z,1.77
2022-09-22T20:23:33.578Z,1.48
2022-09-22T20:26:01.517Z,1.15
2022-09-22T20:28:29.444Z,1.83
2022-09-22T20:30:57.320Z,1.73
2022-09-22T20:33:25.200Z,1.65
2022-09-22T20:35:55.501Z,1.60
2022-09-22T20:38:23.619Z,1.48
2022-09-22T20:40:51.503Z,1.60
2022-09-22T20:43:19.634Z,1.88
2022-09-22T20:45:47.477Z,1.52
2022-09-22T20:48:18.535Z,1.50
2022-09-22T20:50:58.066Z,1.40
2022-09-22T20:53:26.858Z,1.48
2022-09-22T20:56:01.173Z,1.88
2022-09-22T20:58:32.158Z,1.95
2022-09-22T21:01:02.126Z,1.02
2022-09-22T21:03:30.566Z,1.60
2022-09-22T21:06:02.767Z,1.50
2022-09-22T21:08:49.204Z,1.70
2022-09-22T21:11:19.428Z,1.42
2022-09-22T21:13:56.515Z,1.87
2022-09-22T21:16:24.963Z,1.60
2022-09-22T21:18:53.229Z,1.42
2022-09-22T21:21:22.842Z,1.80
2022-09-22T21:23:51.215Z,1.58
2022-09-22T21:26:20.737Z,1.83
2022-09-22T21:28:50.413Z,2.15
2022-09-22T21:31:18.900Z,1.70
2022-09-22T21:33:47.444Z,1.88
2022-09-22T21:36:18.651Z,1.55
2022-09-22T21:41:21.879Z,2.05
2022-09-22T21:43:50.461Z,1.80
2022-09-22T21:46:22.887Z,1.60
2022-09-22T21:48:53.707Z,1.70
2022-09-22T21:51:22.016Z,2.00
2022-09-22T21:53:53.043Z,2.00
2022-09-22T21:56:23.867Z,1.52
2022-09-22T21:58:53.996Z,2.13
2022-09-22T22:01:25.765Z,2.00
2022-09-22T22:03:56.111Z,1.80
2022-09-22T22:06:32.525Z,1.60
2022-09-22T22:09:35.652Z,1.60
2022-09-22T22:12:04.091Z,1.65
2022-09-22T22:14:34.801Z,1.90
2022-09-22T22:17:02.673Z,1.48
2022-09-22T22:19:30.973Z,1.60
2022-09-22T22:21:58.938Z,2.65
2022-09-22T22:24:43.220Z,1.95
2022-09-22T22:27:11.739Z,1.58
2022-09-22T22:29:39.710Z,1.77
2022-09-22T22:32:10.092Z,1.77
2022-09-22T22:34:38.574Z,1.77
2022-09-22T22:37:09.496Z,1.60
2022-09-22T22:39:37.861Z,1.30
2022-09-22T22:42:06.257Z,2.05
2022-09-22T22:44:35.038Z,1.75
2022-09-22T22:47:02.948Z,1.52
2022-09-22T22:49:31.249Z,1.60
2022-09-22T22:52:00.024Z,1.50
2022-09-22T22:54:27.873Z,1.45
2022-09-22T22:56:56.107Z,1.55
2022-09-22T22:59:24.001Z,1.95
2022-09-22T23:01:51.956Z,1.67
2022-09-22T23:04:21.122Z,1.80
2022-09-22T23:06:49.062Z,1.60
2022-09-22T23:09:17.384Z,1.73
2022-09-22T23:11:46.323Z,1.55
2022-09-22T23:14:15.851Z,2.00
2022-09-22T23:16:46.015Z,2.45
2022-09-22T23:19:18.399Z,1.70
2022-09-22T23:21:46.559Z,1.90
2022-09-22T23:24:16.920Z,1.40
2022-09-22T23:26:45.711Z,1.80
2022-09-22T23:29:13.890Z,1.90
2022-09-22T23:31:42.230Z,1.92
2022-09-22T23:34:10.060Z,1.85
2022-09-22T23:36:39.645Z,1.65
2022-09-22T23:39:07.713Z,2.08
2022-09-22T23:41:36.990Z,1.83
2022-09-22T23:44:11.830Z,1.50
2022-09-22T23:46:39.957Z,1.98
2022-09-22T23:49:08.065Z,1.85
2022-09-22T23:51:36.149Z,2.08
2022-09-22T23:54:04.044Z,1.80
2022-09-22T23:56:31.970Z,1.63
2022-09-22T23:58:59.807Z,1.70
